sensor_id;sensor_type;location;lat;lon;timestamp;temperature;humidity
20722;DHT22;10522;52.198;9.890;2023-01-15T00:00:49;9.90;99.90
20722;DHT22;10522;52.198;9.890;2023-01-15T00:03:15;10.00;99.90
20722;DHT22;10522;52.198;9.890;2023-01-15T00:05:40;9.90;99.90
20722;DHT22;10522;52.198;9.890;2023-01-15T00:08:06;9.90;99.90
20722;DHT22;10522;52.198;9.890;2023-01-15T00:10:31;9.90;99.90
20722;DHT22;10522;52.198;9.890;2023-01-15T00:12:57;9.90;99.90
20722;DHT22;10522;52.198;9.890;2023-01-15T00:15:23;9.90;99.90
20722;DHT22;10522;52.198;9.890;2023-01-15T00:17:48;9.90;99.90
20722;DHT22;10522;52.198;9.890;2023-01-15T00:20:14;9.80;99.90
20722;DHT22;10522;52.198;9.890;2023-01-15T00:22:39;9.70;99.90
20722;DHT22;10522;52.198;9.890;2023-01-15T00:25:05;9.60;99.90
20722;DHT22;10522;52.198;9.890;2023-01-15T00:27:50;9.70;99.90
20722;DHT22;10522;52.198;9.890;2023-01-15T00:30:16;9.50;99.90
20722;DHT22;10522;52.198;9.890;2023-01-15T00:32:43;8.80;99.90
20722;DHT22;10522;52.198;9.890;2023-01-15T00:35:14;8.50;99.90
20722;DHT22;10522;52.198;9.890;2023-01-15T00:37:39;8.20;99.90
20722;DHT22;10522;52.198;9.890;2023-01-15T00:40:05;8.10;99.90
20722;DHT22;10522;52.198;9.890;2023-01-15T00:42:31;7.90;99.90
20722;DHT22;10522;52.198;9.890;2023-01-15T00:44:57;7.70;99.90
20722;DHT22;10522;52.198;9.890;2023-01-15T00:47:22;7.60;99.90
20722;DHT22;10522;52.198;9.890;2023-01-15T00:49:48;7.30;99.90
20722;DHT22;10522;52.198;9.890;2023-01-15T00:52:14;7.10;99.90
20722;DHT22;10522;52.198;9.890;2023-01-15T00:54:40;7.00;99.90
20722;DHT22;10522;52.198;9.890;2023-01-15T00:57:06;6.90;99.90
20722;DHT22;10522;52.198;9.890;2023-01-15T00:59:31;6.80;99.90
20722;DHT22;10522;52.198;9.890;2023-01-15T01:01:57;6.80;99.90
20722;DHT22;10522;52.198;9.890;2023-01-15T01:04:23;6.70;99.90
20722;DHT22;10522;52.198;9.890;2023-01-15T01:06:48;6.70;99.90
20722;DHT22;10522;52.198;9.890;2023-01-15T01:09:15;6.70;99.90
20722;DHT22;10522;52.198;9.890;2023-01-15T01:11:41;6.70;99.90
20722;DHT22;10522;52.198;9.890;2023-01-15T01:14:08;6.60;99.90
20722;DHT22;10522;52.198;9.890;2023-01-15T01:16:39;6.60;99.90
20722;DHT22;10522;52.198;9.890;2023-01-15T01:19:19;6.50;99.90
20722;DHT22;10522;52.198;9.890;2023-01-15T01:21:46;6.50;99.90
20722;DHT22;10522;52.198;9.890;2023-01-15T01:24:15;6.50;99.90
20722;DHT22;10522;52.198;9.890;2023-01-15T01:26:41;6.50;99.90
20722;DHT22;10522;52.198;9.890;2023-01-15T01:29:11;6.50;99.90
20722;DHT22;10522;52.198;9.890;2023-01-15T01:31:37;6.40;99.90
20722;DHT22;10522;52.198;9.890;2023-01-15T01:34:03;6.40;99.90
20722;DHT22;10522;52.198;9.890;2023-01-15T01:36:36;6.30;99.90
20722;DHT22;10522;52.198;9.890;2023-01-15T01:39:03;6.30;99.90
20722;DHT22;10522;52.198;9.890;2023-01-15T01:41:30;6.20;99.90
20722;DHT22;10522;52.198;9.890;2023-01-15T01:44:02;6.10;99.90
20722;DHT22;10522;52.198;9.890;2023-01-15T01:46:33;6.00;99.90
20722;DHT22;10522;52.198;9.890;2023-01-15T01:49:10;5.90;99.90
20722;DHT22;10522;52.198;9.890;2023-01-15T01:51:43;5.90;99.90
20722;DHT22;10522;52.198;9.890;2023-01-15T01:54:12;5.80;99.90
20722;DHT22;10522;52.198;9.890;2023-01-15T01:56:38;5.80;99.90
20722;DHT22;10522;52.198;9.890;2023-01-15T01:59:05;5.80;99.90
20722;DHT22;10522;52.198;9.890;2023-01-15T02:01:31;5.60;99.90
20722;DHT22;10522;52.198;9.890;2023-01-15T02:03:57;5.60;99.90
20722;DHT22;10522;52.198;9.890;2023-01-15T02:06:24;5.50;99.90
20722;DHT22;10522;52.198;9.890;2023-01-15T02:08:51;5.50;99.90
20722;DHT22;10522;52.198;9.890;2023-01-15T02:11:20;5.50;99.90
20722;DHT22;10522;52.198;9.890;2023-01-15T02:13:59;5.40;99.90
20722;DHT22;10522;52.198;9.890;2023-01-15T02:19:39;5.30;99.90
20722;DHT22;10522;52.198;9.890;2023-01-15T02:22:28;5.30;99.90
20722;DHT22;10522;52.198;9.890;2023-01-15T02:27:37;5.30;99.90
20722;DHT22;10522;52.198;9.890;2023-01-15T02:35:31;5.30;99.90
20722;DHT22;10522;52.198;9.890;2023-01-15T02:38:04;5.30;99.90
20722;DHT22;10522;52.198;9.890;2023-01-15T02:40:30;5.20;99.90
20722;DHT22;10522;52.198;9.890;2023-01-15T02:42:58;5.20;99.90
20722;DHT22;10522;52.198;9.890;2023-01-15T02:45:30;5.20;99.90
20722;DHT22;10522;52.198;9.890;2023-01-15T02:48:01;5.20;99.90
20722;DHT22;10522;52.198;9.890;2023-01-15T02:50:34;5.10;99.90
20722;DHT22;10522;52.198;9.890;2023-01-15T02:53:04;5.10;99.90
20722;DHT22;10522;52.198;9.890;2023-01-15T02:55:36;5.10;99.90
20722;DHT22;10522;52.198;9.890;2023-01-15T02:58:06;5.10;99.90
20722;DHT22;10522;52.198;9.890;2023-01-15T03:00:38;5.10;99.90
20722;DHT22;10522;52.198;9.890;2023-01-15T03:03:51;5.10;99.90
20722;DHT22;10522;52.198;9.890;2023-01-15T03:06:03;5.10;99.90
20722;DHT22;10522;52.198;9.890;2023-01-15T03:08:30;5.10;99.90
20722;DHT22;10522;52.198;9.890;2023-01-15T03:11:10;5.10;99.90
20722;DHT22;10522;52.198;9.890;2023-01-15T03:13:47;5.10;99.90
20722;DHT22;10522;52.198;9.890;2023-01-15T03:19:05;5.10;99.90
20722;DHT22;10522;52.198;9.890;2023-01-15T03:27:04;5.10;99.90
20722;DHT22;10522;52.198;9.890;2023-01-15T03:29:34;5.20;99.90
20722;DHT22;10522;52.198;9.890;2023-01-15T03:32:01;5.20;99.90
20722;DHT22;10522;52.198;9.890;2023-01-15T03:34:37;5.20;99.90
20722;DHT22;10522;52.198;9.890;2023-01-15T03:37:04;5.20;99.90
20722;DHT22;10522;52.198;9.890;2023-01-15T03:39:30;5.20;99.90
20722;DHT22;10522;52.198;9.890;2023-01-15T03:47:34;5.30;99.90
20722;DHT22;10522;52.198;9.890;2023-01-15T03:52:32;5.30;99.90
20722;DHT22;10522;52.198;9.890;2023-01-15T03:55:24;5.30;99.90
20722;DHT22;10522;52.198;9.890;2023-01-15T03:57:57;5.30;99.90
20722;DHT22;10522;52.198;9.890;2023-01-15T04:00:27;5.40;99.90
20722;DHT22;10522;52.198;9.890;2023-01-15T04:02:55;5.40;99.90
20722;DHT22;10522;52.198;9.890;2023-01-15T04:05:23;5.40;99.90
20722;DHT22;10522;52.198;9.890;2023-01-15T04:07:50;5.40;99.90
20722;DHT22;10522;52.198;9.890;2023-01-15T04:10:17;5.50;99.90
20722;DHT22;10522;52.198;9.890;2023-01-15T04:12:43;5.50;99.90
20722;DHT22;10522;52.198;9.890;2023-01-15T04:15:10;5.50;99.90
20722;DHT22;10522;52.198;9.890;2023-01-15T04:17:35;5.50;99.90
20722;DHT22;10522;52.198;9.890;2023-01-15T04:20:01;5.50;99.90
20722;DHT22;10522;52.198;9.890;2023-01-15T04:22:26;5.50;99.90
20722;DHT22;10522;52.198;9.890;2023-01-15T04:24:52;5.50;99.90
20722;DHT22;10522;52.198;9.890;2023-01-15T04:27:19;5.60;99.90
20722;DHT22;10522;52.198;9.890;2023-01-15T04:29:45;5.60;99.90
20722;DHT22;10522;52.198;9.890;2023-01-15T04:32:10;5.50;99.90
20722;DHT22;10522;52.198;9.890;2023-01-15T04:34:36;5.50;99.90
20722;DHT22;10522;52.198;9.890;2023-01-15T04:37:02;5.60;99.90
20722;DHT22;10522;52.198;9.890;2023-01-15T04:39:27;5.60;99.90
20722;DHT22;10522;52.198;9.890;2023-01-15T04:41:53;5.50;99.90
20722;DHT22;10522;52.198;9.890;2023-01-15T04:44:37;5.60;99.90
20722;DHT22;10522;52.198;9.890;2023-01-15T04:47:03;5.60;99.90
20722;DHT22;10522;52.198;9.890;2023-01-15T04:49:29;5.60;99.90
20722;DHT22;10522;52.198;9.890;2023-01-15T04:51:54;5.50;99.90
20722;DHT22;10522;52.198;9.890;2023-01-15T04:54:20;5.60;99.90
20722;DHT22;10522;52.198;9.890;2023-01-15T04:56:49;5.60;99.90
20722;DHT22;10522;52.198;9.890;2023-01-15T04:59:17;5.70;99.90
20722;DHT22;10522;52.198;9.890;2023-01-15T05:01:43;5.70;99.90
20722;DHT22;10522;52.198;9.890;2023-01-15T05:04:09;5.80;99.90
20722;DHT22;10522;52.198;9.890;2023-01-15T05:06:34;5.80;99.90
20722;DHT22;10522;52.198;9.890;2023-01-15T05:09:01;5.80;99.90
20722;DHT22;10522;52.198;9.890;2023-01-15T05:11:27;5.80;99.90
20722;DHT22;10522;52.198;9.890;2023-01-15T05:13:53;5.80;99.90
20722;DHT22;10522;52.198;9.890;2023-01-15T05:16:22;5.90;99.90
20722;DHT22;10522;52.198;9.890;2023-01-15T05:18:50;5.90;99.90
20722;DHT22;10522;52.198;9.890;2023-01-15T05:21:25;5.90;99.90
20722;DHT22;10522;52.198;9.890;2023-01-15T05:23:53;5.90;99.90
20722;DHT22;10522;52.198;9.890;2023-01-15T05:26:20;5.90;99.90
20722;DHT22;10522;52.198;9.890;2023-01-15T05:28:46;5.80;99.90
20722;DHT22;10522;52.198;9.890;2023-01-15T05:31:14;5.80;99.90
20722;DHT22;10522;52.198;9.890;2023-01-15T05:33:41;5.80;99.90
20722;DHT22;10522;52.198;9.890;2023-01-15T05:36:10;5.90;99.90
20722;DHT22;10522;52.198;9.890;2023-01-15T05:38:36;5.80;99.90
20722;DHT22;10522;52.198;9.890;2023-01-15T05:41:07;5.90;99.90
20722;DHT22;10522;52.198;9.890;2023-01-15T05:43:54;5.80;99.90
20722;DHT22;10522;52.198;9.890;2023-01-15T05:46:20;5.80;99.90
20722;DHT22;10522;52.198;9.890;2023-01-15T05:48:45;5.80;99.90
20722;DHT22;10522;52.198;9.890;2023-01-15T05:51:11;5.80;99.90
20722;DHT22;10522;52.198;9.890;2023-01-15T05:53:37;5.80;99.90
20722;DHT22;10522;52.198;9.890;2023-01-15T05:56:03;5.80;99.90
20722;DHT22;10522;52.198;9.890;2023-01-15T05:58:29;5.80;99.90
20722;DHT22;10522;52.198;9.890;2023-01-15T06:00:55;5.80;99.90
20722;DHT22;10522;52.198;9.890;2023-01-15T06:03:21;5.80;99.90
20722;DHT22;10522;52.198;9.890;2023-01-15T06:05:54;5.80;99.90
20722;DHT22;10522;52.198;9.890;2023-01-15T06:08:21;5.90;99.90
20722;DHT22;10522;52.198;9.890;2023-01-15T06:10:47;5.90;99.90
20722;DHT22;10522;52.198;9.890;2023-01-15T06:13:15;6.00;99.90
20722;DHT22;10522;52.198;9.890;2023-01-15T06:15:41;6.00;99.90
20722;DHT22;10522;52.198;9.890;2023-01-15T06:18:06;6.00;99.90
20722;DHT22;10522;52.198;9.890;2023-01-15T06:20:35;6.00;99.90
20722;DHT22;10522;52.198;9.890;2023-01-15T06:23:00;5.90;99.90
20722;DHT22;10522;52.198;9.890;2023-01-15T06:25:26;5.90;99.90
20722;DHT22;10522;52.198;9.890;2023-01-15T06:27:52;5.90;99.90
20722;DHT22;10522;52.198;9.890;2023-01-15T06:30:18;5.90;99.90
20722;DHT22;10522;52.198;9.890;2023-01-15T06:32:43;5.90;99.90
20722;DHT22;10522;52.198;9.890;2023-01-15T06:35:09;6.00;99.90
20722;DHT22;10522;52.198;9.890;2023-01-15T06:37:35;5.90;99.90
20722;DHT22;10522;52.198;9.890;2023-01-15T06:40:00;5.90;99.90
20722;DHT22;10522;52.198;9.890;2023-01-15T06:42:26;6.00;99.90
20722;DHT22;10522;52.198;9.890;2023-01-15T06:45:20;5.90;99.90
20722;DHT22;10522;52.198;9.890;2023-01-15T06:48:06;5.90;99.90
20722;DHT22;10522;52.198;9.890;2023-01-15T06:50:32;6.00;99.90
20722;DHT22;10522;52.198;9.890;2023-01-15T06:52:58;6.10;99.90
20722;DHT22;10522;52.198;9.890;2023-01-15T06:55:23;6.10;99.90
20722;DHT22;10522;52.198;9.890;2023-01-15T06:57:50;6.00;99.90
20722;DHT22;10522;52.198;9.890;2023-01-15T07:00:16;6.00;99.90
20722;DHT22;10522;52.198;9.890;2023-01-15T07:02:42;6.00;99.90
20722;DHT22;10522;52.198;9.890;2023-01-15T07:05:08;6.10;99.90
20722;DHT22;10522;52.198;9.890;2023-01-15T07:07:33;6.10;99.90
20722;DHT22;10522;52.198;9.890;2023-01-15T07:09:59;6.10;99.90
20722;DHT22;10522;52.198;9.890;2023-01-15T07:12:25;6.10;99.90
20722;DHT22;10522;52.198;9.890;2023-01-15T07:14:51;6.10;99.90
20722;DHT22;10522;52.198;9.890;2023-01-15T07:17:17;6.10;99.90
20722;DHT22;10522;52.198;9.890;2023-01-15T07:19:43;6.10;99.90
20722;DHT22;10522;52.198;9.890;2023-01-15T07:22:09;6.10;99.90
20722;DHT22;10522;52.198;9.890;2023-01-15T07:24:35;6.10;99.90
20722;DHT22;10522;52.198;9.890;2023-01-15T07:27:00;6.10;99.90
20722;DHT22;10522;52.198;9.890;2023-01-15T07:29:26;6.10;99.90
20722;DHT22;10522;52.198;9.890;2023-01-15T07:31:52;6.10;99.90
20722;DHT22;10522;52.198;9.890;2023-01-15T07:34:18;6.10;99.90
20722;DHT22;10522;52.198;9.890;2023-01-15T07:36:43;6.00;99.90
20722;DHT22;10522;52.198;9.890;2023-01-15T07:39:10;6.10;99.90
20722;DHT22;10522;52.198;9.890;2023-01-15T07:41:36;6.00;99.90
20722;DHT22;10522;52.198;9.890;2023-01-15T07:44:21;6.10;99.90
20722;DHT22;10522;52.198;9.890;2023-01-15T07:47:24;5.90;99.90
20722;DHT22;10522;52.198;9.890;2023-01-15T07:50:16;6.00;99.90
20722;DHT22;10522;52.198;9.890;2023-01-15T07:52:42;6.10;99.90
20722;DHT22;10522;52.198;9.890;2023-01-15T07:55:08;6.10;99.90
20722;DHT22;10522;52.198;9.890;2023-01-15T07:57:35;6.10;99.90
20722;DHT22;10522;52.198;9.890;2023-01-15T08:00:02;6.10;99.90
20722;DHT22;10522;52.198;9.890;2023-01-15T08:02:28;6.10;99.90
20722;DHT22;10522;52.198;9.890;2023-01-15T08:04:53;6.00;99.90
20722;DHT22;10522;52.198;9.890;2023-01-15T08:07:19;6.00;99.90
20722;DHT22;10522;52.198;9.890;2023-01-15T08:09:44;6.00;99.90
20722;DHT22;10522;52.198;9.890;2023-01-15T08:12:10;6.00;99.90
20722;DHT22;10522;52.198;9.890;2023-01-15T08:14:55;6.00;99.90
20722;DHT22;10522;52.198;9.890;2023-01-15T08:17:47;6.10;99.90
20722;DHT22;10522;52.198;9.890;2023-01-15T08:20:24;6.10;99.90
20722;DHT22;10522;52.198;9.890;2023-01-15T08:22:51;6.10;99.90
20722;DHT22;10522;52.198;9.890;2023-01-15T08:25:23;6.20;99.90
20722;DHT22;10522;52.198;9.890;2023-01-15T08:27:49;6.10;99.90
20722;DHT22;10522;52.198;9.890;2023-01-15T08:30:17;6.10;99.90
20722;DHT22;10522;52.198;9.890;2023-01-15T08:32:43;6.20;99.90
20722;DHT22;10522;52.198;9.890;2023-01-15T08:35:09;6.20;99.90
20722;DHT22;10522;52.198;9.890;2023-01-15T08:37:35;6.10;99.90
20722;DHT22;10522;52.198;9.890;2023-01-15T08:40:00;6.20;99.90
20722;DHT22;10522;52.198;9.890;2023-01-15T08:42:26;6.20;99.90
20722;DHT22;10522;52.198;9.890;2023-01-15T08:44:52;6.20;99.90
20722;DHT22;10522;52.198;9.890;2023-01-15T08:47:18;6.20;99.90
20722;DHT22;10522;52.198;9.890;2023-01-15T08:49:45;6.10;99.90
20722;DHT22;10522;52.198;9.890;2023-01-15T08:52:11;6.00;99.90
20722;DHT22;10522;52.198;9.890;2023-01-15T08:54:37;6.00;99.90
20722;DHT22;10522;52.198;9.890;2023-01-15T08:57:03;6.00;99.90
20722;DHT22;10522;52.198;9.890;2023-01-15T08:59:28;5.90;99.90
20722;DHT22;10522;52.198;9.890;2023-01-15T09:01:54;6.00;99.90
20722;DHT22;10522;52.198;9.890;2023-01-15T09:04:20;5.90;99.90
20722;DHT22;10522;52.198;9.890;2023-01-15T09:06:47;6.00;99.90
20722;DHT22;10522;52.198;9.890;2023-01-15T09:09:13;6.00;99.90
20722;DHT22;10522;52.198;9.890;2023-01-15T09:11:40;5.90;99.90
20722;DHT22;10522;52.198;9.890;2023-01-15T09:14:11;5.90;99.90
20722;DHT22;10522;52.198;9.890;2023-01-15T09:16:39;5.90;99.90
20722;DHT22;10522;52.198;9.890;2023-01-15T09:19:05;5.90;99.90
20722;DHT22;10522;52.198;9.890;2023-01-15T09:21:32;5.90;99.90
20722;DHT22;10522;52.198;9.890;2023-01-15T09:23:58;5.80;99.90
20722;DHT22;10522;52.198;9.890;2023-01-15T09:26:30;6.00;99.90
20722;DHT22;10522;52.198;9.890;2023-01-15T09:28:57;6.00;99.90
20722;DHT22;10522;52.198;9.890;2023-01-15T09:31:24;6.10;99.90
20722;DHT22;10522;52.198;9.890;2023-01-15T09:33:50;6.10;99.90
20722;DHT22;10522;52.198;9.890;2023-01-15T09:36:17;6.10;99.90
20722;DHT22;10522;52.198;9.890;2023-01-15T09:38:44;6.20;99.90
20722;DHT22;10522;52.198;9.890;2023-01-15T09:41:14;6.20;99.90
20722;DHT22;10522;52.198;9.890;2023-01-15T09:44:17;6.20;99.90
20722;DHT22;10522;52.198;9.890;2023-01-15T09:47:19;6.30;99.90
20722;DHT22;10522;52.198;9.890;2023-01-15T09:49:59;6.40;99.90
20722;DHT22;10522;52.198;9.890;2023-01-15T09:55:17;6.20;99.90
20722;DHT22;10522;52.198;9.890;2023-01-15T09:57:45;6.00;99.90
20722;DHT22;10522;52.198;9.890;2023-01-15T10:00:18;5.90;99.90
20722;DHT22;10522;52.198;9.890;2023-01-15T10:02:58;5.80;99.90
20722;DHT22;10522;52.198;9.890;2023-01-15T10:05:32;5.60;99.90
20722;DHT22;10522;52.198;9.890;2023-01-15T10:10:46;5.20;99.90
20722;DHT22;10522;52.198;9.890;2023-01-15T10:13:34;5.10;99.90
20722;DHT22;10522;52.198;9.890;2023-01-15T10:16:04;5.10;99.90
20722;DHT22;10522;52.198;9.890;2023-01-15T10:18:32;5.00;99.90
20722;DHT22;10522;52.198;9.890;2023-01-15T10:21:10;5.00;99.90
20722;DHT22;10522;52.198;9.890;2023-01-15T10:24:14;4.90;99.90
20722;DHT22;10522;52.198;9.890;2023-01-15T10:26:48;5.00;99.90
20722;DHT22;10522;52.198;9.890;2023-01-15T10:29:41;5.10;99.90
20722;DHT22;10522;52.198;9.890;2023-01-15T10:32:20;5.10;99.90
20722;DHT22;10522;52.198;9.890;2023-01-15T10:34:59;5.30;99.90
20722;DHT22;10522;52.198;9.890;2023-01-15T10:37:36;5.30;99.90
20722;DHT22;10522;52.198;9.890;2023-01-15T10:45:52;5.60;99.90
20722;DHT22;10522;52.198;9.890;2023-01-15T10:51:01;5.60;99.90
20722;DHT22;10522;52.198;9.890;2023-01-15T10:56:04;5.80;99.90
20722;DHT22;10522;52.198;9.890;2023-01-15T10:58:37;5.70;99.90
20722;DHT22;10522;52.198;9.890;2023-01-15T11:01:08;5.70;99.90
20722;DHT22;10522;52.198;9.890;2023-01-15T11:03:38;5.60;99.90
20722;DHT22;10522;52.198;9.890;2023-01-15T11:06:06;5.70;99.90
20722;DHT22;10522;52.198;9.890;2023-01-15T11:08:33;5.90;99.90
20722;DHT22;10522;52.198;9.890;2023-01-15T11:11:13;6.10;99.90
20722;DHT22;10522;52.198;9.890;2023-01-15T11:13:51;6.20;99.90
20722;DHT22;10522;52.198;9.890;2023-01-15T11:16:37;6.30;99.90
20722;DHT22;10522;52.198;9.890;2023-01-15T11:19:30;6.50;99.90
20722;DHT22;10522;52.198;9.890;2023-01-15T11:22:05;6.60;99.90
20722;DHT22;10522;52.198;9.890;2023-01-15T11:24:36;6.70;99.90
20722;DHT22;10522;52.198;9.890;2023-01-15T11:27:04;6.60;99.90
20722;DHT22;10522;52.198;9.890;2023-01-15T11:29:34;6.60;99.90
20722;DHT22;10522;52.198;9.890;2023-01-15T11:32:01;6.60;99.90
20722;DHT22;10522;52.198;9.890;2023-01-15T11:34:27;6.70;99.90
20722;DHT22;10522;52.198;9.890;2023-01-15T11:37:05;6.70;99.90
20722;DHT22;10522;52.198;9.890;2023-01-15T11:39:31;6.70;99.90
20722;DHT22;10522;52.198;9.890;2023-01-15T11:42:04;6.80;99.90
20722;DHT22;10522;52.198;9.890;2023-01-15T11:44:56;6.90;99.90
20722;DHT22;10522;52.198;9.890;2023-01-15T11:47:51;7.00;99.90
20722;DHT22;10522;52.198;9.890;2023-01-15T11:50:47;6.90;99.90
20722;DHT22;10522;52.198;9.890;2023-01-15T11:53:37;6.80;99.90
20722;DHT22;10522;52.198;9.890;2023-01-15T11:56:07;6.90;99.90
20722;DHT22;10522;52.198;9.890;2023-01-15T11:58:39;6.90;99.90
20722;DHT22;10522;52.198;9.890;2023-01-15T12:01:05;7.00;99.90
20722;DHT22;10522;52.198;9.890;2023-01-15T12:03:34;7.20;99.90
20722;DHT22;10522;52.198;9.890;2023-01-15T12:06:04;7.20;99.90
20722;DHT22;10522;52.198;9.890;2023-01-15T12:08:42;7.20;99.90
20722;DHT22;10522;52.198;9.890;2023-01-15T12:16:42;7.30;99.90
20722;DHT22;10522;52.198;9.890;2023-01-15T12:19:44;7.30;99.90
20722;DHT22;10522;52.198;9.890;2023-01-15T12:36:09;7.00;99.90
20722;DHT22;10522;52.198;9.890;2023-01-15T12:38:53;7.10;99.90
20722;DHT22;10522;52.198;9.890;2023-01-15T12:41:34;7.10;99.90
20722;DHT22;10522;52.198;9.890;2023-01-15T12:44:35;7.10;99.90
20722;DHT22;10522;52.198;9.890;2023-01-15T12:47:26;7.00;99.90
20722;DHT22;10522;52.198;9.890;2023-01-15T12:50:21;6.90;99.90
20722;DHT22;10522;52.198;9.890;2023-01-15T12:52:52;6.90;99.90
20722;DHT22;10522;52.198;9.890;2023-01-15T12:55:27;6.90;99.90
20722;DHT22;10522;52.198;9.890;2023-01-15T12:57:59;6.90;99.90
20722;DHT22;10522;52.198;9.890;2023-01-15T13:00:34;7.00;99.90
20722;DHT22;10522;52.198;9.890;2023-01-15T13:03:22;7.00;99.90
20722;DHT22;10522;52.198;9.890;2023-01-15T13:05:56;7.00;99.90
20722;DHT22;10522;52.198;9.890;2023-01-15T13:08:48;7.00;99.90
20722;DHT22;10522;52.198;9.890;2023-01-15T13:11:16;7.10;99.90
20722;DHT22;10522;52.198;9.890;2023-01-15T13:13:43;7.10;99.90
20722;DHT22;10522;52.198;9.890;2023-01-15T13:16:29;7.30;99.90
20722;DHT22;10522;52.198;9.890;2023-01-15T13:21:46;7.40;99.90
20722;DHT22;10522;52.198;9.890;2023-01-15T13:28:12;7.30;99.90
20722;DHT22;10522;52.198;9.890;2023-01-15T13:30:57;7.20;99.90
20722;DHT22;10522;52.198;9.890;2023-01-15T13:36:04;7.10;99.90
20722;DHT22;10522;52.198;9.890;2023-01-15T13:38:36;7.10;99.90
20722;DHT22;10522;52.198;9.890;2023-01-15T13:41:06;7.10;99.90
20722;DHT22;10522;52.198;9.890;2023-01-15T13:43:40;7.00;99.90
20722;DHT22;10522;52.198;9.890;2023-01-15T13:46:12;7.00;99.90
20722;DHT22;10522;52.198;9.890;2023-01-15T13:48:44;7.10;99.90
20722;DHT22;10522;52.198;9.890;2023-01-15T13:51:31;7.10;99.90
20722;DHT22;10522;52.198;9.890;2023-01-15T13:53:58;7.20;99.90
20722;DHT22;10522;52.198;9.890;2023-01-15T13:56:32;7.20;99.90
20722;DHT22;10522;52.198;9.890;2023-01-15T13:59:05;7.20;99.90
20722;DHT22;10522;52.198;9.890;2023-01-15T14:01:34;7.10;99.90
20722;DHT22;10522;52.198;9.890;2023-01-15T14:06:46;6.90;99.90
20722;DHT22;10522;52.198;9.890;2023-01-15T14:14:57;6.90;99.90
20722;DHT22;10522;52.198;9.890;2023-01-15T14:17:54;6.90;99.90
20722;DHT22;10522;52.198;9.890;2023-01-15T14:29:21;7.10;99.90
20722;DHT22;10522;52.198;9.890;2023-01-15T14:34:31;7.20;99.90
20722;DHT22;10522;52.198;9.890;2023-01-15T14:37:04;7.30;99.90
20722;DHT22;10522;52.198;9.890;2023-01-15T14:45:33;7.10;99.90
20722;DHT22;10522;52.198;9.890;2023-01-15T14:48:10;7.00;99.90
20722;DHT22;10522;52.198;9.890;2023-01-15T14:50:41;6.90;99.90
20722;DHT22;10522;52.198;9.890;2023-01-15T14:55:48;6.90;99.90
20722;DHT22;10522;52.198;9.890;2023-01-15T14:58:38;6.90;99.90
20722;DHT22;10522;52.198;9.890;2023-01-15T15:09:41;6.90;99.90
20722;DHT22;10522;52.198;9.890;2023-01-15T15:26:25;6.90;99.90
20722;DHT22;10522;52.198;9.890;2023-01-15T15:31:22;6.80;99.90
20722;DHT22;10522;52.198;9.890;2023-01-15T15:33:55;6.70;99.90
20722;DHT22;10522;52.198;9.890;2023-01-15T15:36:23;6.70;99.90
20722;DHT22;10522;52.198;9.890;2023-01-15T15:38:58;6.80;99.90
20722;DHT22;10522;52.198;9.890;2023-01-15T15:41:29;6.90;99.90
20722;DHT22;10522;52.198;9.890;2023-01-15T15:44:31;6.70;99.90
20722;DHT22;10522;52.198;9.890;2023-01-15T15:47:20;6.70;99.90
20722;DHT22;10522;52.198;9.890;2023-01-15T15:50:04;6.70;99.90
20722;DHT22;10522;52.198;9.890;2023-01-15T15:52:30;6.60;99.90
20722;DHT22;10522;52.198;9.890;2023-01-15T15:55:00;6.70;99.90
20722;DHT22;10522;52.198;9.890;2023-01-15T15:57:27;6.60;99.90
20722;DHT22;10522;52.198;9.890;2023-01-15T15:59:54;6.60;99.90
20722;DHT22;10522;52.198;9.890;2023-01-15T16:02:23;6.60;99.90
20722;DHT22;10522;52.198;9.890;2023-01-15T16:04:54;6.60;99.90
20722;DHT22;10522;52.198;9.890;2023-01-15T16:09:52;6.50;99.90
20722;DHT22;10522;52.198;9.890;2023-01-15T16:12:18;6.70;99.90
20722;DHT22;10522;52.198;9.890;2023-01-15T16:14:45;6.50;99.90
20722;DHT22;10522;52.198;9.890;2023-01-15T16:17:13;6.40;99.90
20722;DHT22;10522;52.198;9.890;2023-01-15T16:19:39;6.50;99.90
20722;DHT22;10522;52.198;9.890;2023-01-15T16:22:07;6.50;99.90
20722;DHT22;10522;52.198;9.890;2023-01-15T16:24:33;6.40;99.90
20722;DHT22;10522;52.198;9.890;2023-01-15T16:27:02;6.50;99.90
20722;DHT22;10522;52.198;9.890;2023-01-15T16:29:31;6.50;99.90
20722;DHT22;10522;52.198;9.890;2023-01-15T16:31:57;6.40;99.90
20722;DHT22;10522;52.198;9.890;2023-01-15T16:34:31;6.60;99.90
20722;DHT22;10522;52.198;9.890;2023-01-15T16:37:00;6.70;99.90
20722;DHT22;10522;52.198;9.890;2023-01-15T16:41:58;6.60;99.90
20722;DHT22;10522;52.198;9.890;2023-01-15T16:44:40;6.70;99.90
20722;DHT22;10522;52.198;9.890;2023-01-15T16:47:37;6.70;99.90
20722;DHT22;10522;52.198;9.890;2023-01-15T16:50:30;6.70;99.90
20722;DHT22;10522;52.198;9.890;2023-01-15T16:52:58;6.70;99.90
20722;DHT22;10522;52.198;9.890;2023-01-15T16:55:36;6.70;99.90
20722;DHT22;10522;52.198;9.890;2023-01-15T16:58:15;6.80;99.90
20722;DHT22;10522;52.198;9.890;2023-01-15T17:00:43;6.70;99.90
20722;DHT22;10522;52.198;9.890;2023-01-15T17:03:15;6.70;99.90
20722;DHT22;10522;52.198;9.890;2023-01-15T17:05:42;6.70;99.90
20722;DHT22;10522;52.198;9.890;2023-01-15T17:08:23;6.70;99.90
20722;DHT22;10522;52.198;9.890;2023-01-15T17:10:56;6.70;99.90
20722;DHT22;10522;52.198;9.890;2023-01-15T17:13:30;6.60;99.90
20722;DHT22;10522;52.198;9.890;2023-01-15T17:18:38;6.80;99.90
20722;DHT22;10522;52.198;9.890;2023-01-15T17:21:05;6.80;99.90
20722;DHT22;10522;52.198;9.890;2023-01-15T17:23:36;6.70;99.90
20722;DHT22;10522;52.198;9.890;2023-01-15T17:26:05;6.80;99.90
20722;DHT22;10522;52.198;9.890;2023-01-15T17:28:31;6.80;99.90
20722;DHT22;10522;52.198;9.890;2023-01-15T17:30:59;6.90;99.90
20722;DHT22;10522;52.198;9.890;2023-01-15T17:33:25;6.80;99.90
20722;DHT22;10522;52.198;9.890;2023-01-15T17:35:50;6.80;99.90
20722;DHT22;10522;52.198;9.890;2023-01-15T17:38:18;6.80;99.90
20722;DHT22;10522;52.198;9.890;2023-01-15T17:40:44;6.90;99.90
20722;DHT22;10522;52.198;9.890;2023-01-15T17:43:14;6.80;99.90
20722;DHT22;10522;52.198;9.890;2023-01-15T17:45:41;6.90;99.90
20722;DHT22;10522;52.198;9.890;2023-01-15T17:48:08;6.80;99.90
20722;DHT22;10522;52.198;9.890;2023-01-15T17:50:35;6.90;99.90
20722;DHT22;10522;52.198;9.890;2023-01-15T17:53:01;6.90;99.90
20722;DHT22;10522;52.198;9.890;2023-01-15T17:55:27;6.80;99.90
20722;DHT22;10522;52.198;9.890;2023-01-15T17:58:12;6.80;99.90
20722;DHT22;10522;52.198;9.890;2023-01-15T18:00:57;6.80;99.90
20722;DHT22;10522;52.198;9.890;2023-01-15T18:03:51;6.80;99.90
20722;DHT22;10522;52.198;9.890;2023-01-15T18:06:36;6.80;99.90
20722;DHT22;10522;52.198;9.890;2023-01-15T18:09:04;6.80;99.90
20722;DHT22;10522;52.198;9.890;2023-01-15T18:11:32;6.70;99.90
20722;DHT22;10522;52.198;9.890;2023-01-15T18:13:58;6.70;99.90
20722;DHT22;10522;52.198;9.890;2023-01-15T18:16:23;6.70;99.90
20722;DHT22;10522;52.198;9.890;2023-01-15T18:18:53;6.70;99.90
20722;DHT22;10522;52.198;9.890;2023-01-15T18:21:20;6.70;99.90
20722;DHT22;10522;52.198;9.890;2023-01-15T18:23:46;6.80;99.90